sensor_id;sensor_type;location;lat;lon;timestamp;P1;durP1;ratioP1;P2;durP2;ratioP2
14348;SDS011;7258;50.376;8.742;2023-02-10T00:00:42;45.93;;;29.20;;
14348;SDS011;7258;50.376;8.742;2023-02-10T00:02:45;48.27;;;28.93;;
14348;SDS011;7258;50.376;8.742;2023-02-10T00:04:48;50.60;;;30.20;;
14348;SDS011;7258;50.376;8.742;2023-02-10T00:06:55;46.63;;;29.13;;
14348;SDS011;7258;50.376;8.742;2023-02-10T00:08:59;46.47;;;27.93;;
14348;SDS011;7258;50.376;8.742;2023-02-10T00:11:05;41.30;;;27.23;;
14348;SDS011;7258;50.376;8.742;2023-02-10T00:13:12;45.07;;;27.83;;
14348;SDS011;7258;50.376;8.742;2023-02-10T00:15:15;45.03;;;26.90;;
14348;SDS011;7258;50.376;8.742;2023-02-10T00:17:18;43.70;;;27.17;;
14348;SDS011;7258;50.376;8.742;2023-02-10T00:19:22;40.67;;;26.23;;
14348;SDS011;7258;50.376;8.742;2023-02-10T00:21:26;47.20;;;28.60;;
14348;SDS011;7258;50.376;8.742;2023-02-10T00:23:29;52.47;;;30.63;;
14348;SDS011;7258;50.376;8.742;2023-02-10T00:25:34;43.37;;;28.83;;
14348;SDS011;7258;50.376;8.742;2023-02-10T00:27:37;49.73;;;29.73;;
14348;SDS011;7258;50.376;8.742;2023-02-10T00:29:43;48.03;;;28.47;;
14348;SDS011;7258;50.376;8.742;2023-02-10T00:31:49;42.63;;;28.03;;
14348;SDS011;7258;50.376;8.742;2023-02-10T00:33:53;44.70;;;27.77;;
14348;SDS011;7258;50.376;8.742;2023-02-10T00:35:56;47.60;;;28.53;;
14348;SDS011;7258;50.376;8.742;2023-02-10T00:38:00;45.10;;;28.90;;
14348;SDS011;7258;50.376;8.742;2023-02-10T00:40:03;43.43;;;27.97;;
14348;SDS011;7258;50.376;8.742;2023-02-10T00:42:09;45.40;;;29.10;;
14348;SDS011;7258;50.376;8.742;2023-02-10T00:44:12;41.20;;;26.53;;
14348;SDS011;7258;50.376;8.742;2023-02-10T00:46:15;45.33;;;27.43;;
14348;SDS011;7258;50.376;8.742;2023-02-10T00:48:21;44.53;;;27.13;;
14348;SDS011;7258;50.376;8.742;2023-02-10T00:50:24;44.67;;;27.80;;
14348;SDS011;7258;50.376;8.742;2023-02-10T00:52:27;46.30;;;28.27;;
14348;SDS011;7258;50.376;8.742;2023-02-10T00:54:30;45.27;;;28.20;;
14348;SDS011;7258;50.376;8.742;2023-02-10T00:56:33;43.03;;;26.53;;
14348;SDS011;7258;50.376;8.742;2023-02-10T00:58:37;42.37;;;27.90;;
14348;SDS011;7258;50.376;8.742;2023-02-10T01:00:41;42.87;;;26.70;;
14348;SDS011;7258;50.376;8.742;2023-02-10T01:02:44;39.73;;;26.27;;
14348;SDS011;7258;50.376;8.742;2023-02-10T01:04:47;44.07;;;27.20;;
14348;SDS011;7258;50.376;8.742;2023-02-10T01:06:50;43.30;;;26.60;;
14348;SDS011;7258;50.376;8.742;2023-02-10T01:08:53;45.43;;;28.27;;
14348;SDS011;7258;50.376;8.742;2023-02-10T01:10:59;40.67;;;25.67;;
14348;SDS011;7258;50.376;8.742;2023-02-10T01:13:03;42.17;;;27.87;;
14348;SDS011;7258;50.376;8.742;2023-02-10T01:15:09;38.47;;;25.33;;
14348;SDS011;7258;50.376;8.742;2023-02-10T01:17:12;40.37;;;26.10;;
14348;SDS011;7258;50.376;8.742;2023-02-10T01:19:15;40.37;;;26.83;;
14348;SDS011;7258;50.376;8.742;2023-02-10T01:21:19;42.13;;;27.40;;
14348;SDS011;7258;50.376;8.742;2023-02-10T01:23:22;38.53;;;24.53;;
14348;SDS011;7258;50.376;8.742;2023-02-10T01:25:25;36.40;;;25.13;;
14348;SDS011;7258;50.376;8.742;2023-02-10T01:27:28;42.60;;;26.40;;
14348;SDS011;7258;50.376;8.742;2023-02-10T01:29:33;36.10;;;24.97;;
14348;SDS011;7258;50.376;8.742;2023-02-10T01:31:38;43.90;;;26.57;;
14348;SDS011;7258;50.376;8.742;2023-02-10T01:33:40;39.73;;;25.73;;
14348;SDS011;7258;50.376;8.742;2023-02-10T01:35:44;41.03;;;26.93;;
14348;SDS011;7258;50.376;8.742;2023-02-10T01:37:47;43.57;;;27.60;;
14348;SDS011;7258;50.376;8.742;2023-02-10T01:39:51;40.33;;;27.60;;
14348;SDS011;7258;50.376;8.742;2023-02-10T01:41:54;38.90;;;24.80;;
14348;SDS011;7258;50.376;8.742;2023-02-10T01:43:59;35.07;;;24.63;;
14348;SDS011;7258;50.376;8.742;2023-02-10T01:46:03;36.60;;;25.23;;
14348;SDS011;7258;50.376;8.742;2023-02-10T01:48:11;34.80;;;23.53;;
14348;SDS011;7258;50.376;8.742;2023-02-10T01:50:15;35.87;;;23.13;;
14348;SDS011;7258;50.376;8.742;2023-02-10T01:52:22;33.23;;;23.13;;
14348;SDS011;7258;50.376;8.742;2023-02-10T01:54:31;35.80;;;22.40;;
14348;SDS011;7258;50.376;8.742;2023-02-10T01:56:39;36.40;;;24.57;;
14348;SDS011;7258;50.376;8.742;2023-02-10T01:58:42;33.40;;;22.83;;
14348;SDS011;7258;50.376;8.742;2023-02-10T02:00:45;32.83;;;22.73;;
14348;SDS011;7258;50.376;8.742;2023-02-10T02:02:48;34.00;;;22.57;;
14348;SDS011;7258;50.376;8.742;2023-02-10T02:04:54;33.27;;;22.93;;
14348;SDS011;7258;50.376;8.742;2023-02-10T02:07:01;34.17;;;22.17;;
14348;SDS011;7258;50.376;8.742;2023-02-10T02:09:04;31.07;;;21.70;;
14348;SDS011;7258;50.376;8.742;2023-02-10T02:11:11;31.17;;;21.30;;
14348;SDS011;7258;50.376;8.742;2023-02-10T02:13:23;32.37;;;20.73;;
14348;SDS011;7258;50.376;8.742;2023-02-10T02:15:34;30.13;;;20.50;;
14348;SDS011;7258;50.376;8.742;2023-02-10T02:18:08;32.13;;;22.03;;
14348;SDS011;7258;50.376;8.742;2023-02-10T02:20:22;29.27;;;21.07;;
14348;SDS011;7258;50.376;8.742;2023-02-10T02:22:55;32.43;;;21.30;;
14348;SDS011;7258;50.376;8.742;2023-02-10T02:25:16;33.03;;;22.43;;
14348;SDS011;7258;50.376;8.742;2023-02-10T02:27:40;31.90;;;21.40;;
14348;SDS011;7258;50.376;8.742;2023-02-10T02:32:51;30.63;;;22.30;;
14348;SDS011;7258;50.376;8.742;2023-02-10T02:34:58;30.67;;;21.87;;
14348;SDS011;7258;50.376;8.742;2023-02-10T02:37:05;38.13;;;26.00;;
14348;SDS011;7258;50.376;8.742;2023-02-10T02:39:14;36.37;;;24.77;;
14348;SDS011;7258;50.376;8.742;2023-02-10T02:41:21;38.97;;;26.43;;
14348;SDS011;7258;50.376;8.742;2023-02-10T02:43:25;40.77;;;27.33;;
14348;SDS011;7258;50.376;8.742;2023-02-10T02:45:31;38.50;;;27.07;;
14348;SDS011;7258;50.376;8.742;2023-02-10T02:47:56;42.93;;;28.77;;
14348;SDS011;7258;50.376;8.742;2023-02-10T02:50:14;48.43;;;29.93;;
14348;SDS011;7258;50.376;8.742;2023-02-10T02:52:26;45.10;;;29.43;;
14348;SDS011;7258;50.376;8.742;2023-02-10T02:54:41;47.57;;;30.13;;
14348;SDS011;7258;50.376;8.742;2023-02-10T02:56:49;48.27;;;31.23;;
14348;SDS011;7258;50.376;8.742;2023-02-10T02:58:59;43.17;;;29.50;;
14348;SDS011;7258;50.376;8.742;2023-02-10T03:01:09;48.07;;;30.90;;
14348;SDS011;7258;50.376;8.742;2023-02-10T03:03:18;43.60;;;30.13;;
14348;SDS011;7258;50.376;8.742;2023-02-10T03:05:22;47.20;;;30.73;;
14348;SDS011;7258;50.376;8.742;2023-02-10T03:07:30;40.73;;;29.40;;
14348;SDS011;7258;50.376;8.742;2023-02-10T03:09:33;47.00;;;32.20;;
14348;SDS011;7258;50.376;8.742;2023-02-10T03:11:38;42.30;;;29.33;;
14348;SDS011;7258;50.376;8.742;2023-02-10T03:13:41;45.90;;;30.37;;
14348;SDS011;7258;50.376;8.742;2023-02-10T03:15:44;41.73;;;29.33;;
14348;SDS011;7258;50.376;8.742;2023-02-10T03:17:50;48.60;;;31.30;;
14348;SDS011;7258;50.376;8.742;2023-02-10T03:19:55;43.03;;;29.17;;
14348;SDS011;7258;50.376;8.742;2023-02-10T03:21:58;44.87;;;29.67;;
14348;SDS011;7258;50.376;8.742;2023-02-10T03:24:01;43.00;;;29.97;;
14348;SDS011;7258;50.376;8.742;2023-02-10T03:26:05;45.87;;;29.50;;
14348;SDS011;7258;50.376;8.742;2023-02-10T03:28:08;47.13;;;30.73;;
14348;SDS011;7258;50.376;8.742;2023-02-10T03:30:14;40.83;;;30.10;;
14348;SDS011;7258;50.376;8.742;2023-02-10T03:32:17;43.23;;;30.20;;
14348;SDS011;7258;50.376;8.742;2023-02-10T03:34:21;42.93;;;30.03;;
14348;SDS011;7258;50.376;8.742;2023-02-10T03:36:25;44.23;;;29.60;;
14348;SDS011;7258;50.376;8.742;2023-02-10T03:38:28;42.33;;;29.40;;
14348;SDS011;7258;50.376;8.742;2023-02-10T03:40:31;47.93;;;30.63;;
14348;SDS011;7258;50.376;8.742;2023-02-10T03:42:34;43.10;;;30.37;;
14348;SDS011;7258;50.376;8.742;2023-02-10T03:44:37;40.03;;;28.40;;
14348;SDS011;7258;50.376;8.742;2023-02-10T03:46:40;42.73;;;29.10;;
14348;SDS011;7258;50.376;8.742;2023-02-10T03:48:43;41.00;;;28.87;;
14348;SDS011;7258;50.376;8.742;2023-02-10T03:50:47;42.97;;;29.80;;
14348;SDS011;7258;50.376;8.742;2023-02-10T03:52:52;44.17;;;28.77;;
14348;SDS011;7258;50.376;8.742;2023-02-10T03:54:55;41.20;;;29.03;;
14348;SDS011;7258;50.376;8.742;2023-02-10T03:56:58;41.87;;;29.90;;
14348;SDS011;7258;50.376;8.742;2023-02-10T03:59:01;45.27;;;29.73;;
14348;SDS011;7258;50.376;8.742;2023-02-10T04:01:09;42.57;;;28.97;;
14348;SDS011;7258;50.376;8.742;2023-02-10T04:03:14;46.00;;;30.63;;
14348;SDS011;7258;50.376;8.742;2023-02-10T04:05:17;41.17;;;29.23;;
14348;SDS011;7258;50.376;8.742;2023-02-10T04:07:20;43.40;;;29.60;;
14348;SDS011;7258;50.376;8.742;2023-02-10T04:09:25;41.53;;;29.23;;
14348;SDS011;7258;50.376;8.742;2023-02-10T04:11:29;44.97;;;30.63;;
14348;SDS011;7258;50.376;8.742;2023-02-10T04:13:32;44.77;;;30.93;;
14348;SDS011;7258;50.376;8.742;2023-02-10T04:15:35;46.40;;;29.60;;
14348;SDS011;7258;50.376;8.742;2023-02-10T04:17:38;41.90;;;29.40;;
14348;SDS011;7258;50.376;8.742;2023-02-10T04:19:41;44.60;;;30.43;;
14348;SDS011;7258;50.376;8.742;2023-02-10T04:21:44;45.67;;;30.53;;
14348;SDS011;7258;50.376;8.742;2023-02-10T04:23:47;43.93;;;30.63;;
14348;SDS011;7258;50.376;8.742;2023-02-10T04:25:52;48.40;;;31.73;;
14348;SDS011;7258;50.376;8.742;2023-02-10T04:27:55;46.30;;;31.57;;
14348;SDS011;7258;50.376;8.742;2023-02-10T04:29:58;45.37;;;31.17;;
14348;SDS011;7258;50.376;8.742;2023-02-10T04:32:04;45.77;;;31.87;;
14348;SDS011;7258;50.376;8.742;2023-02-10T04:34:08;47.23;;;33.23;;
14348;SDS011;7258;50.376;8.742;2023-02-10T04:36:11;43.53;;;31.73;;
14348;SDS011;7258;50.376;8.742;2023-02-10T04:38:14;45.67;;;31.07;;
14348;SDS011;7258;50.376;8.742;2023-02-10T04:40:17;47.30;;;33.23;;
14348;SDS011;7258;50.376;8.742;2023-02-10T04:42:22;52.03;;;32.13;;
14348;SDS011;7258;50.376;8.742;2023-02-10T04:44:31;42.47;;;30.23;;
14348;SDS011;7258;50.376;8.742;2023-02-10T04:46:34;44.90;;;31.33;;
14348;SDS011;7258;50.376;8.742;2023-02-10T04:48:37;44.53;;;31.53;;
14348;SDS011;7258;50.376;8.742;2023-02-10T04:50:40;45.97;;;31.93;;
14348;SDS011;7258;50.376;8.742;2023-02-10T04:52:44;45.77;;;32.17;;
14348;SDS011;7258;50.376;8.742;2023-02-10T04:54:47;44.20;;;31.37;;
14348;SDS011;7258;50.376;8.742;2023-02-10T04:56:50;42.53;;;30.63;;
14348;SDS011;7258;50.376;8.742;2023-02-10T04:58:54;47.47;;;33.13;;
14348;SDS011;7258;50.376;8.742;2023-02-10T05:01:00;42.87;;;31.13;;
14348;SDS011;7258;50.376;8.742;2023-02-10T05:03:03;42.87;;;31.03;;
14348;SDS011;7258;50.376;8.742;2023-02-10T05:05:09;44.30;;;31.43;;
14348;SDS011;7258;50.376;8.742;2023-02-10T05:07:14;43.90;;;30.70;;
14348;SDS011;7258;50.376;8.742;2023-02-10T05:09:17;44.40;;;30.30;;
14348;SDS011;7258;50.376;8.742;2023-02-10T05:11:20;44.73;;;30.53;;
14348;SDS011;7258;50.376;8.742;2023-02-10T05:13:23;43.77;;;30.53;;
14348;SDS011;7258;50.376;8.742;2023-02-10T05:15:27;44.77;;;30.17;;
14348;SDS011;7258;50.376;8.742;2023-02-10T05:17:30;44.77;;;30.70;;
14348;SDS011;7258;50.376;8.742;2023-02-10T05:19:33;41.73;;;29.93;;
14348;SDS011;7258;50.376;8.742;2023-02-10T05:21:36;44.63;;;31.77;;
14348;SDS011;7258;50.376;8.742;2023-02-10T05:23:39;46.47;;;31.33;;
14348;SDS011;7258;50.376;8.742;2023-02-10T05:25:42;47.63;;;32.47;;
14348;SDS011;7258;50.376;8.742;2023-02-10T05:27:44;44.87;;;31.67;;
14348;SDS011;7258;50.376;8.742;2023-02-10T05:29:47;44.80;;;30.73;;
14348;SDS011;7258;50.376;8.742;2023-02-10T05:31:54;45.93;;;31.83;;
14348;SDS011;7258;50.376;8.742;2023-02-10T05:33:57;43.27;;;31.10;;
14348;SDS011;7258;50.376;8.742;2023-02-10T05:36:04;41.87;;;29.87;;
14348;SDS011;7258;50.376;8.742;2023-02-10T05:38:07;47.07;;;31.77;;
14348;SDS011;7258;50.376;8.742;2023-02-10T05:40:11;45.67;;;31.93;;
14348;SDS011;7258;50.376;8.742;2023-02-10T05:42:14;47.87;;;32.80;;
14348;SDS011;7258;50.376;8.742;2023-02-10T05:44:17;44.47;;;32.03;;
14348;SDS011;7258;50.376;8.742;2023-02-10T05:46:20;44.43;;;31.80;;
14348;SDS011;7258;50.376;8.742;2023-02-10T05:48:25;44.73;;;31.30;;
14348;SDS011;7258;50.376;8.742;2023-02-10T05:50:28;43.03;;;31.07;;
14348;SDS011;7258;50.376;8.742;2023-02-10T05:52:31;51.37;;;33.03;;
14348;SDS011;7258;50.376;8.742;2023-02-10T05:54:34;48.77;;;33.53;;
14348;SDS011;7258;50.376;8.742;2023-02-10T05:56:38;48.13;;;32.37;;
14348;SDS011;7258;50.376;8.742;2023-02-10T05:58:41;45.47;;;32.00;;
14348;SDS011;7258;50.376;8.742;2023-02-10T06:00:44;48.63;;;32.77;;
14348;SDS011;7258;50.376;8.742;2023-02-10T06:02:47;45.30;;;33.53;;
14348;SDS011;7258;50.376;8.742;2023-02-10T06:04:52;47.10;;;33.53;;
14348;SDS011;7258;50.376;8.742;2023-02-10T06:06:55;45.87;;;33.03;;
14348;SDS011;7258;50.376;8.742;2023-02-10T06:08:58;47.60;;;33.70;;
14348;SDS011;7258;50.376;8.742;2023-02-10T06:11:01;47.33;;;33.47;;
14348;SDS011;7258;50.376;8.742;2023-02-10T06:13:04;50.77;;;33.73;;
14348;SDS011;7258;50.376;8.742;2023-02-10T06:15:08;48.50;;;33.80;;
14348;SDS011;7258;50.376;8.742;2023-02-10T06:17:11;45.77;;;32.47;;
14348;SDS011;7258;50.376;8.742;2023-02-10T06:19:14;47.17;;;33.20;;
14348;SDS011;7258;50.376;8.742;2023-02-10T06:21:22;49.53;;;33.23;;
14348;SDS011;7258;50.376;8.742;2023-02-10T06:23:25;51.37;;;33.70;;
14348;SDS011;7258;50.376;8.742;2023-02-10T06:25:28;47.00;;;32.73;;
14348;SDS011;7258;50.376;8.742;2023-02-10T06:27:31;45.60;;;32.43;;
14348;SDS011;7258;50.376;8.742;2023-02-10T06:29:34;51.10;;;33.73;;
14348;SDS011;7258;50.376;8.742;2023-02-10T06:31:37;50.93;;;33.37;;
14348;SDS011;7258;50.376;8.742;2023-02-10T06:33:40;49.77;;;33.87;;
14348;SDS011;7258;50.376;8.742;2023-02-10T06:35:46;48.57;;;32.57;;
14348;SDS011;7258;50.376;8.742;2023-02-10T06:37:51;51.47;;;34.50;;
14348;SDS011;7258;50.376;8.742;2023-02-10T06:39:55;48.70;;;33.70;;
14348;SDS011;7258;50.376;8.742;2023-02-10T06:41:58;52.87;;;34.63;;
14348;SDS011;7258;50.376;8.742;2023-02-10T06:44:02;47.70;;;33.73;;
14348;SDS011;7258;50.376;8.742;2023-02-10T06:46:05;47.77;;;33.27;;
14348;SDS011;7258;50.376;8.742;2023-02-10T06:48:11;46.40;;;33.27;;
14348;SDS011;7258;50.376;8.742;2023-02-10T06:50:14;51.57;;;34.60;;
14348;SDS011;7258;50.376;8.742;2023-02-10T06:52:18;48.63;;;33.77;;
14348;SDS011;7258;50.376;8.742;2023-02-10T06:56:42;48.70;;;33.90;;
14348;SDS011;7258;50.376;8.742;2023-02-10T06:58:47;50.70;;;35.30;;
14348;SDS011;7258;50.376;8.742;2023-02-10T07:00:50;54.73;;;34.17;;
14348;SDS011;7258;50.376;8.742;2023-02-10T07:02:53;46.93;;;33.57;;
14348;SDS011;7258;50.376;8.742;2023-02-10T07:04:56;53.23;;;34.23;;
14348;SDS011;7258;50.376;8.742;2023-02-10T07:06:59;54.97;;;35.07;;
14348;SDS011;7258;50.376;8.742;2023-02-10T07:09:02;50.97;;;34.90;;
14348;SDS011;7258;50.376;8.742;2023-02-10T07:11:07;48.00;;;34.20;;
14348;SDS011;7258;50.376;8.742;2023-02-10T07:13:11;51.03;;;34.47;;
14348;SDS011;7258;50.376;8.742;2023-02-10T07:15:14;51.57;;;35.33;;
14348;SDS011;7258;50.376;8.742;2023-02-10T07:17:18;54.10;;;34.37;;
14348;SDS011;7258;50.376;8.742;2023-02-10T07:19:22;54.00;;;35.70;;
14348;SDS011;7258;50.376;8.742;2023-02-10T07:21:25;53.77;;;35.93;;
14348;SDS011;7258;50.376;8.742;2023-02-10T07:23:28;52.20;;;34.93;;
14348;SDS011;7258;50.376;8.742;2023-02-10T07:25:40;57.93;;;37.33;;
14348;SDS011;7258;50.376;8.742;2023-02-10T07:27:45;57.33;;;35.83;;
14348;SDS011;7258;50.376;8.742;2023-02-10T07:29:49;55.37;;;37.07;;
14348;SDS011;7258;50.376;8.742;2023-02-10T07:31:52;54.67;;;36.23;;
14348;SDS011;7258;50.376;8.742;2023-02-10T07:33:55;54.97;;;35.20;;
14348;SDS011;7258;50.376;8.742;2023-02-10T07:36:01;48.50;;;35.57;;
14348;SDS011;7258;50.376;8.742;2023-02-10T07:38:06;51.27;;;35.43;;
14348;SDS011;7258;50.376;8.742;2023-02-10T07:40:09;48.03;;;33.30;;
14348;SDS011;7258;50.376;8.742;2023-02-10T07:42:13;51.40;;;35.80;;
14348;SDS011;7258;50.376;8.742;2023-02-10T07:44:18;45.10;;;33.23;;
14348;SDS011;7258;50.376;8.742;2023-02-10T07:46:23;50.43;;;35.10;;
14348;SDS011;7258;50.376;8.742;2023-02-10T07:48:26;46.60;;;31.87;;
14348;SDS011;7258;50.376;8.742;2023-02-10T07:50:29;42.23;;;30.60;;
14348;SDS011;7258;50.376;8.742;2023-02-10T07:52:35;44.97;;;31.70;;
14348;SDS011;7258;50.376;8.742;2023-02-10T07:54:38;43.57;;;31.83;;
14348;SDS011;7258;50.376;8.742;2023-02-10T07:56:41;46.27;;;32.03;;
14348;SDS011;7258;50.376;8.742;2023-02-10T07:58:44;42.67;;;30.77;;
14348;SDS011;7258;50.376;8.742;2023-02-10T08:00:49;40.97;;;30.20;;
14348;SDS011;7258;50.376;8.742;2023-02-10T08:02:53;42.33;;;30.77;;
14348;SDS011;7258;50.376;8.742;2023-02-10T08:04:58;43.77;;;31.77;;
14348;SDS011;7258;50.376;8.742;2023-02-10T08:07:02;43.07;;;31.23;;
14348;SDS011;7258;50.376;8.742;2023-02-10T08:09:19;44.57;;;31.27;;
14348;SDS011;7258;50.376;8.742;2023-02-10T08:11:23;44.03;;;30.70;;
14348;SDS011;7258;50.376;8.742;2023-02-10T08:13:26;43.87;;;31.57;;
14348;SDS011;7258;50.376;8.742;2023-02-10T08:15:30;42.70;;;31.37;;
14348;SDS011;7258;50.376;8.742;2023-02-10T08:17:35;47.50;;;33.10;;
14348;SDS011;7258;50.376;8.742;2023-02-10T08:19:42;45.77;;;31.93;;
14348;SDS011;7258;50.376;8.742;2023-02-10T08:21:45;42.33;;;31.90;;
14348;SDS011;7258;50.376;8.742;2023-02-10T08:23:49;43.40;;;31.30;;
14348;SDS011;7258;50.376;8.742;2023-02-10T08:26:01;42.13;;;30.27;;
14348;SDS011;7258;50.376;8.742;2023-02-10T08:28:06;43.73;;;30.93;;
14348;SDS011;7258;50.376;8.742;2023-02-10T08:30:09;43.73;;;32.47;;
14348;SDS011;7258;50.376;8.742;2023-02-10T08:32:13;38.93;;;29.60;;
14348;SDS011;7258;50.376;8.742;2023-02-10T08:34:21;41.03;;;30.77;;
14348;SDS011;7258;50.376;8.742;2023-02-10T08:36:24;39.97;;;29.50;;
14348;SDS011;7258;50.376;8.742;2023-02-10T08:38:28;38.80;;;29.33;;
14348;SDS011;7258;50.376;8.742;2023-02-10T08:40:31;39.87;;;30.67;;
14348;SDS011;7258;50.376;8.742;2023-02-10T08:42:35;37.40;;;29.57;;
14348;SDS011;7258;50.376;8.742;2023-02-10T08:44:38;41.67;;;29.73;;
14348;SDS011;7258;50.376;8.742;2023-02-10T08:46:42;40.60;;;29.97;;
14348;SDS011;7258;50.376;8.742;2023-02-10T08:48:51;39.20;;;29.20;;
14348;SDS011;7258;50.376;8.742;2023-02-10T08:50:55;40.20;;;28.50;;
14348;SDS011;7258;50.376;8.742;2023-02-10T08:53:01;39.07;;;29.23;;
14348;SDS011;7258;50.376;8.742;2023-02-10T08:55:04;38.70;;;29.53;;
14348;SDS011;7258;50.376;8.742;2023-02-10T08:57:11;36.90;;;27.93;;
14348;SDS011;7258;50.376;8.742;2023-02-10T08:59:17;36.80;;;27.43;;
14348;SDS011;7258;50.376;8.742;2023-02-10T09:01:20;38.00;;;27.63;;
14348;SDS011;7258;50.376;8.742;2023-02-10T09:03:30;34.93;;;28.37;;
14348;SDS011;7258;50.376;8.742;2023-02-10T09:05:34;42.30;;;29.87;;
14348;SDS011;7258;50.376;8.742;2023-02-10T09:07:40;39.40;;;30.50;;
14348;SDS011;7258;50.376;8.742;2023-02-10T09:09:43;38.77;;;28.50;;
14348;SDS011;7258;50.376;8.742;2023-02-10T09:11:46;39.10;;;30.23;;
14348;SDS011;7258;50.376;8.742;2023-02-10T09:13:50;41.60;;;30.83;;
14348;SDS011;7258;50.376;8.742;2023-02-10T09:15:54;36.53;;;29.77;;
14348;SDS011;7258;50.376;8.742;2023-02-10T09:17:58;44.30;;;29.23;;
14348;SDS011;7258;50.376;8.742;2023-02-10T09:20:12;41.80;;;29.57;;
14348;SDS011;7258;50.376;8.742;2023-02-10T09:22:15;37.77;;;29.93;;
14348;SDS011;7258;50.376;8.742;2023-02-10T09:24:19;39.40;;;30.00;;
14348;SDS011;7258;50.376;8.742;2023-02-10T09:26:23;41.30;;;30.97;;
14348;SDS011;7258;50.376;8.742;2023-02-10T09:28:26;41.40;;;30.87;;
14348;SDS011;7258;50.376;8.742;2023-02-10T09:30:30;40.33;;;29.57;;
14348;SDS011;7258;50.376;8.742;2023-02-10T09:32:35;40.27;;;30.97;;
14348;SDS011;7258;50.376;8.742;2023-02-10T09:34:38;40.50;;;30.87;;
14348;SDS011;7258;50.376;8.742;2023-02-10T09:36:42;42.20;;;31.30;;
14348;SDS011;7258;50.376;8.742;2023-02-10T09:38:45;39.77;;;30.97;;
14348;SDS011;7258;50.376;8.742;2023-02-10T09:40:54;38.33;;;30.17;;
14348;SDS011;7258;50.376;8.742;2023-02-10T09:43:07;42.60;;;32.23;;
14348;SDS011;7258;50.376;8.742;2023-02-10T09:45:18;38.50;;;28.93;;
14348;SDS011;7258;50.376;8.742;2023-02-10T09:47:26;44.50;;;31.83;;
14348;SDS011;7258;50.376;8.742;2023-02-10T09:49:50;40.10;;;29.97;;
14348;SDS011;7258;50.376;8.742;2023-02-10T09:52:02;43.33;;;30.50;;
14348;SDS011;7258;50.376;8.742;2023-02-10T09:54:13;39.37;;;30.80;;
14348;SDS011;7258;50.376;8.742;2023-02-10T09:56:22;42.80;;;32.00;;
14348;SDS011;7258;50.376;8.742;2023-02-10T09:58:29;42.63;;;32.17;;
14348;SDS011;7258;50.376;8.742;2023-02-10T10:00:37;43.13;;;32.47;;
14348;SDS011;7258;50.376;8.742;2023-02-10T10:02:46;41.17;;;31.80;;
14348;SDS011;7258;50.376;8.742;2023-02-10T10:04:53;40.50;;;30.90;;
14348;SDS011;7258;50.376;8.742;2023-02-10T10:06:58;38.30;;;29.73;;
14348;SDS011;7258;50.376;8.742;2023-02-10T10:09:15;39.60;;;29.80;;
14348;SDS011;7258;50.376;8.742;2023-02-10T10:11:30;43.07;;;31.30;;
14348;SDS011;7258;50.376;8.742;2023-02-10T10:13:38;39.70;;;31.97;;
14348;SDS011;7258;50.376;8.742;2023-02-10T10:15:42;39.23;;;30.07;;
14348;SDS011;7258;50.376;8.742;2023-02-10T10:17:58;40.27;;;31.40;;
14348;SDS011;7258;50.376;8.742;2023-02-10T10:20:14;42.00;;;29.67;;
14348;SDS011;7258;50.376;8.742;2023-02-10T10:22:42;38.80;;;30.67;;
14348;SDS011;7258;50.376;8.742;2023-02-10T10:24:56;49.67;;;30.00;;
14348;SDS011;7258;50.376;8.742;2023-02-10T10:27:18;41.83;;;30.30;;
14348;SDS011;7258;50.376;8.742;2023-02-10T10:29:30;39.83;;;30.27;;
14348;SDS011;7258;50.376;8.742;2023-02-10T10:31:42;37.90;;;30.33;;
14348;SDS011;7258;50.376;8.742;2023-02-10T10:33:49;44.07;;;31.27;;
14348;SDS011;7258;50.376;8.742;2023-02-10T10:35:55;41.40;;;30.23;;
14348;SDS011;7258;50.376;8.742;2023-02-10T10:38:07;44.20;;;30.87;;
14348;SDS011;7258;50.376;8.742;2023-02-10T10:40:15;42.43;;;30.97;;
14348;SDS011;7258;50.376;8.742;2023-02-10T10:42:25;42.37;;;30.93;;
14348;SDS011;7258;50.376;8.742;2023-02-10T10:44:31;40.33;;;30.93;;
14348;SDS011;7258;50.376;8.742;2023-02-10T10:46:38;39.23;;;30.43;;
14348;SDS011;7258;50.376;8.742;2023-02-10T10:48:46;47.17;;;29.90;;
14348;SDS011;7258;50.376;8.742;2023-02-10T10:50:49;43.33;;;31.67;;
14348;SDS011;7258;50.376;8.742;2023-02-10T10:52:53;45.50;;;32.13;;
14348;SDS011;7258;50.376;8.742;2023-02-10T10:54:58;40.77;;;29.40;;
14348;SDS011;7258;50.376;8.742;2023-02-10T10:57:04;39.47;;;30.87;;
14348;SDS011;7258;50.376;8.742;2023-02-10T10:59:11;44.57;;;32.00;;
14348;SDS011;7258;50.376;8.742;2023-02-10T11:01:29;41.10;;;32.07;;
14348;SDS011;7258;50.376;8.742;2023-02-10T11:03:34;42.17;;;31.80;;
14348;SDS011;7258;50.376;8.742;2023-02-10T11:05:37;41.27;;;31.17;;
14348;SDS011;7258;50.376;8.742;2023-02-10T11:07:41;39.80;;;31.60;;
14348;SDS011;7258;50.376;8.742;2023-02-10T11:09:49;39.93;;;29.77;;
14348;SDS011;7258;50.376;8.742;2023-02-10T11:12:00;38.90;;;30.40;;
14348;SDS011;7258;50.376;8.742;2023-02-10T11:14:13;44.30;;;32.33;;
14348;SDS011;7258;50.376;8.742;2023-02-10T11:16:18;41.73;;;31.53;;
14348;SDS011;7258;50.376;8.742;2023-02-10T11:18:30;43.23;;;32.43;;
14348;SDS011;7258;50.376;8.742;2023-02-10T11:20:33;41.60;;;31.20;;
14348;SDS011;7258;50.376;8.742;2023-02-10T11:22:38;42.90;;;33.30;;
14348;SDS011;7258;50.376;8.742;2023-02-10T11:24:49;40.73;;;31.77;;
14348;SDS011;7258;50.376;8.742;2023-02-10T11:26:55;43.60;;;31.27;;
14348;SDS011;7258;50.376;8.742;2023-02-10T11:29:08;40.10;;;31.40;;
14348;SDS011;7258;50.376;8.742;2023-02-10T11:31:19;42.60;;;31.83;;
14348;SDS011;7258;50.376;8.742;2023-02-10T11:33:31;44.50;;;33.20;;
14348;SDS011;7258;50.376;8.742;2023-02-10T11:35:35;41.07;;;31.30;;
14348;SDS011;7258;50.376;8.742;2023-02-10T11:37:39;43.03;;;32.07;;
14348;SDS011;7258;50.376;8.742;2023-02-10T11:39:47;41.40;;;32.83;;
14348;SDS011;7258;50.376;8.742;2023-02-10T11:41:51;41.43;;;33.23;;
14348;SDS011;7258;50.376;8.742;2023-02-10T11:43:55;43.57;;;32.73;;
14348;SDS011;7258;50.376;8.742;2023-02-10T11:45:59;40.27;;;31.77;;
14348;SDS011;7258;50.376;8.742;2023-02-10T11:48:16;42.00;;;32.43;;
14348;SDS011;7258;50.376;8.742;2023-02-10T11:50:21;43.07;;;31.73;;
14348;SDS011;7258;50.376;8.742;2023-02-10T11:52:26;43.43;;;33.00;;
14348;SDS011;7258;50.376;8.742;2023-02-10T11:54:32;38.90;;;31.47;;
14348;SDS011;7258;50.376;8.742;2023-02-10T11:56:37;40.70;;;30.93;;
14348;SDS011;7258;50.376;8.742;2023-02-10T11:59:06;38.97;;;30.47;;
14348;SDS011;7258;50.376;8.742;2023-02-10T12:01:15;44.27;;;32.17;;
14348;SDS011;7258;50.376;8.742;2023-02-10T12:03:32;40.20;;;30.47;;
14348;SDS011;7258;50.376;8.742;2023-02-10T12:05:52;38.47;;;30.87;;
14348;SDS011;7258;50.376;8.742;2023-02-10T12:08:04;40.93;;;32.27;;
14348;SDS011;7258;50.376;8.742;2023-02-10T12:10:15;38.30;;;30.27;;
14348;SDS011;7258;50.376;8.742;2023-02-10T12:12:27;39.77;;;30.10;;
14348;SDS011;7258;50.376;8.742;2023-02-10T12:14:44;42.17;;;30.90;;
14348;SDS011;7258;50.376;8.742;2023-02-10T12:17:02;39.40;;;30.80;;
14348;SDS011;7258;50.376;8.742;2023-02-10T12:19:20;38.37;;;30.83;;
14348;SDS011;7258;50.376;8.742;2023-02-10T12:21:45;42.90;;;31.40;;
14348;SDS011;7258;50.376;8.742;2023-02-10T12:24:09;41.13;;;31.20;;
14348;SDS011;7258;50.376;8.742;2023-02-10T12:26:24;40.63;;;31.37;;
14348;SDS011;7258;50.376;8.742;2023-02-10T12:28:32;41.00;;;31.40;;
14348;SDS011;7258;50.376;8.742;2023-02-10T12:30:44;41.97;;;31.77;;
14348;SDS011;7258;50.376;8.742;2023-02-10T12:35:44;40.67;;;32.03;;